sensor_id;sensor_type;location;lat;lon;timestamp;P1;durP1;ratioP1;P2;durP2;ratioP2
14052;SDS011;7101;51.600;7.310;2023-06-14T00:01:29;8.88;;;4.32;;
14052;SDS011;7101;51.600;7.310;2023-06-14T00:03:57;4.60;;;3.45;;
14052;SDS011;7101;51.600;7.310;2023-06-14T00:06:24;6.43;;;3.85;;
14052;SDS011;7101;51.600;7.310;2023-06-14T00:08:52;5.63;;;4.20;;
14052;SDS011;7101;51.600;7.310;2023-06-14T00:11:20;4.63;;;3.53;;
14052;SDS011;7101;51.600;7.310;2023-06-14T00:13:50;4.43;;;3.20;;
14052;SDS011;7101;51.600;7.310;2023-06-14T00:16:17;6.40;;;3.58;;
14052;SDS011;7101;51.600;7.310;2023-06-14T00:18:44;6.22;;;3.83;;
14052;SDS011;7101;51.600;7.310;2023-06-14T00:21:11;8.57;;;3.65;;
14052;SDS011;7101;51.600;7.310;2023-06-14T00:23:38;7.07;;;3.53;;
14052;SDS011;7101;51.600;7.310;2023-06-14T00:26:06;4.60;;;3.60;;
14052;SDS011;7101;51.600;7.310;2023-06-14T00:28:33;6.68;;;3.58;;
14052;SDS011;7101;51.600;7.310;2023-06-14T00:31:00;6.63;;;3.00;;
14052;SDS011;7101;51.600;7.310;2023-06-14T00:33:29;5.70;;;3.20;;
14052;SDS011;7101;51.600;7.310;2023-06-14T00:35:56;4.70;;;3.22;;
14052;SDS011;7101;51.600;7.310;2023-06-14T00:38:23;5.47;;;3.20;;
14052;SDS011;7101;51.600;7.310;2023-06-14T00:40:50;5.70;;;3.13;;
14052;SDS011;7101;51.600;7.310;2023-06-14T00:43:18;6.53;;;3.15;;
14052;SDS011;7101;51.600;7.310;2023-06-14T00:45:45;4.72;;;2.60;;
14052;SDS011;7101;51.600;7.310;2023-06-14T00:48:16;5.43;;;3.30;;
14052;SDS011;7101;51.600;7.310;2023-06-14T00:50:44;4.85;;;2.80;;
14052;SDS011;7101;51.600;7.310;2023-06-14T00:53:13;6.32;;;3.08;;
14052;SDS011;7101;51.600;7.310;2023-06-14T00:55:45;5.43;;;3.05;;
14052;SDS011;7101;51.600;7.310;2023-06-14T00:58:13;6.03;;;2.85;;
14052;SDS011;7101;51.600;7.310;2023-06-14T01:00:42;4.43;;;3.08;;
14052;SDS011;7101;51.600;7.310;2023-06-14T01:03:09;4.32;;;3.10;;
14052;SDS011;7101;51.600;7.310;2023-06-14T01:05:37;4.38;;;2.90;;
14052;SDS011;7101;51.600;7.310;2023-06-14T01:08:11;7.57;;;3.38;;
14052;SDS011;7101;51.600;7.310;2023-06-14T01:10:50;3.60;;;3.10;;
14052;SDS011;7101;51.600;7.310;2023-06-14T01:13:23;3.33;;;2.70;;
14052;SDS011;7101;51.600;7.310;2023-06-14T01:15:55;5.40;;;2.97;;
14052;SDS011;7101;51.600;7.310;2023-06-14T01:18:23;4.60;;;3.08;;
14052;SDS011;7101;51.600;7.310;2023-06-14T01:20:51;12.60;;;3.08;;
14052;SDS011;7101;51.600;7.310;2023-06-14T01:23:22;5.97;;;2.95;;
14052;SDS011;7101;51.600;7.310;2023-06-14T01:25:58;4.53;;;2.88;;
14052;SDS011;7101;51.600;7.310;2023-06-14T01:28:28;4.10;;;2.83;;
14052;SDS011;7101;51.600;7.310;2023-06-14T01:30:59;10.55;;;3.22;;
14052;SDS011;7101;51.600;7.310;2023-06-14T01:33:29;4.55;;;3.42;;
14052;SDS011;7101;51.600;7.310;2023-06-14T01:35:59;4.85;;;2.97;;
14052;SDS011;7101;51.600;7.310;2023-06-14T01:38:29;9.60;;;3.17;;
14052;SDS011;7101;51.600;7.310;2023-06-14T01:40:58;8.63;;;3.42;;
14052;SDS011;7101;51.600;7.310;2023-06-14T01:43:29;7.35;;;3.03;;
14052;SDS011;7101;51.600;7.310;2023-06-14T01:45:57;4.75;;;2.63;;
14052;SDS011;7101;51.600;7.310;2023-06-14T01:48:26;6.15;;;2.95;;
14052;SDS011;7101;51.600;7.310;2023-06-14T01:50:53;6.40;;;2.95;;
14052;SDS011;7101;51.600;7.310;2023-06-14T01:53:22;5.03;;;3.00;;
14052;SDS011;7101;51.600;7.310;2023-06-14T01:55:50;7.43;;;3.53;;
14052;SDS011;7101;51.600;7.310;2023-06-14T01:58:20;4.13;;;3.30;;
14052;SDS011;7101;51.600;7.310;2023-06-14T02:00:47;5.93;;;3.00;;
14052;SDS011;7101;51.600;7.310;2023-06-14T02:03:14;5.72;;;3.20;;
14052;SDS011;7101;51.600;7.310;2023-06-14T02:05:41;3.63;;;3.25;;
14052;SDS011;7101;51.600;7.310;2023-06-14T02:08:08;4.28;;;2.83;;
14052;SDS011;7101;51.600;7.310;2023-06-14T02:10:36;4.75;;;3.20;;
14052;SDS011;7101;51.600;7.310;2023-06-14T02:13:04;6.05;;;2.97;;
14052;SDS011;7101;51.600;7.310;2023-06-14T02:15:31;6.28;;;2.88;;
14052;SDS011;7101;51.600;7.310;2023-06-14T02:18:01;6.32;;;2.85;;
14052;SDS011;7101;51.600;7.310;2023-06-14T02:20:29;5.57;;;3.08;;
14052;SDS011;7101;51.600;7.310;2023-06-14T02:22:58;3.80;;;3.10;;
14052;SDS011;7101;51.600;7.310;2023-06-14T02:25:25;4.32;;;2.70;;
14052;SDS011;7101;51.600;7.310;2023-06-14T02:27:54;6.03;;;2.70;;
14052;SDS011;7101;51.600;7.310;2023-06-14T02:30:23;4.38;;;2.88;;
14052;SDS011;7101;51.600;7.310;2023-06-14T02:32:49;4.88;;;3.42;;
14052;SDS011;7101;51.600;7.310;2023-06-14T02:35:19;4.38;;;2.83;;
14052;SDS011;7101;51.600;7.310;2023-06-14T02:37:47;6.68;;;3.05;;
14052;SDS011;7101;51.600;7.310;2023-06-14T02:40:18;7.03;;;2.95;;
14052;SDS011;7101;51.600;7.310;2023-06-14T02:42:45;4.35;;;2.58;;
14052;SDS011;7101;51.600;7.310;2023-06-14T02:45:12;5.75;;;2.75;;
14052;SDS011;7101;51.600;7.310;2023-06-14T02:47:45;6.60;;;2.72;;
14052;SDS011;7101;51.600;7.310;2023-06-14T02:50:13;4.95;;;2.92;;
14052;SDS011;7101;51.600;7.310;2023-06-14T02:52:41;4.80;;;2.88;;
14052;SDS011;7101;51.600;7.310;2023-06-14T02:55:11;4.68;;;3.10;;
14052;SDS011;7101;51.600;7.310;2023-06-14T02:57:38;3.40;;;2.70;;
14052;SDS011;7101;51.600;7.310;2023-06-14T03:00:06;5.47;;;3.00;;
14052;SDS011;7101;51.600;7.310;2023-06-14T03:02:36;9.00;;;3.10;;
14052;SDS011;7101;51.600;7.310;2023-06-14T03:05:05;5.57;;;3.17;;
14052;SDS011;7101;51.600;7.310;2023-06-14T03:07:33;4.13;;;2.97;;
14052;SDS011;7101;51.600;7.310;2023-06-14T03:10:00;10.73;;;2.88;;
14052;SDS011;7101;51.600;7.310;2023-06-14T03:12:28;5.68;;;3.20;;
14052;SDS011;7101;51.600;7.310;2023-06-14T03:14:56;5.47;;;2.70;;
14052;SDS011;7101;51.600;7.310;2023-06-14T03:17:28;4.47;;;2.67;;
14052;SDS011;7101;51.600;7.310;2023-06-14T03:19:58;8.40;;;3.00;;
14052;SDS011;7101;51.600;7.310;2023-06-14T03:22:27;6.15;;;3.28;;
14052;SDS011;7101;51.600;7.310;2023-06-14T03:24:54;7.10;;;3.00;;
14052;SDS011;7101;51.600;7.310;2023-06-14T03:27:23;5.68;;;3.03;;
14052;SDS011;7101;51.600;7.310;2023-06-14T03:29:51;4.13;;;2.78;;
14052;SDS011;7101;51.600;7.310;2023-06-14T03:32:18;5.35;;;3.08;;
14052;SDS011;7101;51.600;7.310;2023-06-14T03:34:45;5.13;;;2.97;;
14052;SDS011;7101;51.600;7.310;2023-06-14T03:37:12;5.05;;;3.00;;
14052;SDS011;7101;51.600;7.310;2023-06-14T03:39:40;7.13;;;2.83;;
14052;SDS011;7101;51.600;7.310;2023-06-14T03:42:11;6.03;;;3.22;;
14052;SDS011;7101;51.600;7.310;2023-06-14T03:44:39;5.70;;;2.55;;
14052;SDS011;7101;51.600;7.310;2023-06-14T03:47:06;3.70;;;2.80;;
14052;SDS011;7101;51.600;7.310;2023-06-14T03:49:35;4.63;;;2.67;;
14052;SDS011;7101;51.600;7.310;2023-06-14T03:52:03;3.40;;;2.60;;
14052;SDS011;7101;51.600;7.310;2023-06-14T03:54:30;6.32;;;3.10;;
14052;SDS011;7101;51.600;7.310;2023-06-14T03:56:59;3.97;;;2.85;;
14052;SDS011;7101;51.600;7.310;2023-06-14T03:59:26;9.43;;;2.67;;
14052;SDS011;7101;51.600;7.310;2023-06-14T04:01:54;4.85;;;2.65;;
14052;SDS011;7101;51.600;7.310;2023-06-14T04:04:21;7.38;;;2.83;;
14052;SDS011;7101;51.600;7.310;2023-06-14T04:06:53;6.90;;;2.90;;
14052;SDS011;7101;51.600;7.310;2023-06-14T04:09:21;4.97;;;3.05;;
14052;SDS011;7101;51.600;7.310;2023-06-14T04:11:51;4.20;;;2.75;;
14052;SDS011;7101;51.600;7.310;2023-06-14T04:14:20;5.82;;;3.13;;
14052;SDS011;7101;51.600;7.310;2023-06-14T04:16:47;4.93;;;2.70;;
14052;SDS011;7101;51.600;7.310;2023-06-14T04:19:15;4.07;;;2.60;;
14052;SDS011;7101;51.600;7.310;2023-06-14T04:21:42;6.60;;;2.75;;
14052;SDS011;7101;51.600;7.310;2023-06-14T04:24:09;4.65;;;2.63;;
14052;SDS011;7101;51.600;7.310;2023-06-14T04:26:38;7.15;;;2.88;;
14052;SDS011;7101;51.600;7.310;2023-06-14T04:29:05;8.90;;;2.80;;
14052;SDS011;7101;51.600;7.310;2023-06-14T04:31:34;4.53;;;2.65;;
14052;SDS011;7101;51.600;7.310;2023-06-14T04:34:04;3.75;;;2.58;;
14052;SDS011;7101;51.600;7.310;2023-06-14T04:36:31;9.32;;;2.88;;
14052;SDS011;7101;51.600;7.310;2023-06-14T04:39:00;6.13;;;2.72;;
14052;SDS011;7101;51.600;7.310;2023-06-14T04:41:29;3.55;;;2.42;;
14052;SDS011;7101;51.600;7.310;2023-06-14T04:43:57;3.50;;;2.90;;
14052;SDS011;7101;51.600;7.310;2023-06-14T04:46:27;4.40;;;2.60;;
14052;SDS011;7101;51.600;7.310;2023-06-14T04:48:56;5.80;;;3.10;;
14052;SDS011;7101;51.600;7.310;2023-06-14T04:51:29;5.90;;;2.60;;
14052;SDS011;7101;51.600;7.310;2023-06-14T04:53:58;8.68;;;3.20;;
14052;SDS011;7101;51.600;7.310;2023-06-14T04:56:26;5.43;;;2.80;;
14052;SDS011;7101;51.600;7.310;2023-06-14T04:58:54;8.23;;;3.05;;
14052;SDS011;7101;51.600;7.310;2023-06-14T05:01:21;4.53;;;3.20;;
14052;SDS011;7101;51.600;7.310;2023-06-14T05:03:49;6.55;;;3.17;;
14052;SDS011;7101;51.600;7.310;2023-06-14T05:06:19;7.55;;;2.88;;
14052;SDS011;7101;51.600;7.310;2023-06-14T05:08:47;8.43;;;2.90;;
14052;SDS011;7101;51.600;7.310;2023-06-14T05:11:14;6.18;;;2.53;;
14052;SDS011;7101;51.600;7.310;2023-06-14T05:13:42;3.85;;;2.35;;
14052;SDS011;7101;51.600;7.310;2023-06-14T05:16:10;8.05;;;2.67;;
14052;SDS011;7101;51.600;7.310;2023-06-14T05:18:39;6.13;;;2.65;;
14052;SDS011;7101;51.600;7.310;2023-06-14T05:21:07;6.90;;;2.72;;
14052;SDS011;7101;51.600;7.310;2023-06-14T05:23:35;4.65;;;2.40;;
14052;SDS011;7101;51.600;7.310;2023-06-14T05:26:03;5.80;;;2.35;;
14052;SDS011;7101;51.600;7.310;2023-06-14T05:28:31;7.22;;;2.60;;
14052;SDS011;7101;51.600;7.310;2023-06-14T05:30:58;6.50;;;2.83;;
14052;SDS011;7101;51.600;7.310;2023-06-14T05:33:25;4.63;;;2.80;;
14052;SDS011;7101;51.600;7.310;2023-06-14T05:35:53;4.68;;;2.65;;
14052;SDS011;7101;51.600;7.310;2023-06-14T05:38:20;6.40;;;2.80;;
14052;SDS011;7101;51.600;7.310;2023-06-14T05:40:48;4.55;;;2.47;;
14052;SDS011;7101;51.600;7.310;2023-06-14T05:43:16;5.10;;;2.72;;
14052;SDS011;7101;51.600;7.310;2023-06-14T05:45:43;5.18;;;2.70;;
14052;SDS011;7101;51.600;7.310;2023-06-14T05:48:10;7.85;;;2.70;;
14052;SDS011;7101;51.600;7.310;2023-06-14T05:50:37;4.47;;;2.80;;
14052;SDS011;7101;51.600;7.310;2023-06-14T05:53:04;4.47;;;2.80;;
14052;SDS011;7101;51.600;7.310;2023-06-14T05:55:30;7.43;;;3.03;;
14052;SDS011;7101;51.600;7.310;2023-06-14T05:57:59;7.22;;;3.65;;
14052;SDS011;7101;51.600;7.310;2023-06-14T06:00:26;6.47;;;3.33;;
14052;SDS011;7101;51.600;7.310;2023-06-14T06:02:53;5.30;;;2.72;;
14052;SDS011;7101;51.600;7.310;2023-06-14T06:05:22;5.00;;;2.58;;
14052;SDS011;7101;51.600;7.310;2023-06-14T06:07:49;5.65;;;3.15;;
14052;SDS011;7101;51.600;7.310;2023-06-14T06:10:16;10.27;;;2.67;;
14052;SDS011;7101;51.600;7.310;2023-06-14T06:12:53;6.88;;;3.00;;
14052;SDS011;7101;51.600;7.310;2023-06-14T06:15:21;4.40;;;2.70;;
14052;SDS011;7101;51.600;7.310;2023-06-14T06:17:48;6.25;;;2.72;;
14052;SDS011;7101;51.600;7.310;2023-06-14T06:20:18;5.75;;;3.15;;
14052;SDS011;7101;51.600;7.310;2023-06-14T06:22:45;4.60;;;2.95;;
14052;SDS011;7101;51.600;7.310;2023-06-14T06:25:11;6.97;;;2.75;;
14052;SDS011;7101;51.600;7.310;2023-06-14T06:27:41;6.25;;;2.53;;
14052;SDS011;7101;51.600;7.310;2023-06-14T06:30:08;6.05;;;2.50;;
14052;SDS011;7101;51.600;7.310;2023-06-14T06:32:36;5.43;;;2.70;;
14052;SDS011;7101;51.600;7.310;2023-06-14T06:35:07;6.55;;;2.40;;
14052;SDS011;7101;51.600;7.310;2023-06-14T06:37:35;5.75;;;2.45;;
14052;SDS011;7101;51.600;7.310;2023-06-14T06:40:03;8.85;;;2.75;;
14052;SDS011;7101;51.600;7.310;2023-06-14T06:42:30;5.70;;;2.95;;
14052;SDS011;7101;51.600;7.310;2023-06-14T06:44:58;5.80;;;2.90;;
14052;SDS011;7101;51.600;7.310;2023-06-14T06:47:28;9.43;;;2.78;;
14052;SDS011;7101;51.600;7.310;2023-06-14T06:49:56;7.32;;;2.75;;
14052;SDS011;7101;51.600;7.310;2023-06-14T06:52:23;6.45;;;2.10;;
14052;SDS011;7101;51.600;7.310;2023-06-14T06:54:51;7.63;;;2.28;;
14052;SDS011;7101;51.600;7.310;2023-06-14T06:57:20;6.78;;;2.38;;
14052;SDS011;7101;51.600;7.310;2023-06-14T06:59:51;3.45;;;2.13;;
14052;SDS011;7101;51.600;7.310;2023-06-14T07:02:21;3.25;;;2.00;;
14052;SDS011;7101;51.600;7.310;2023-06-14T07:04:50;4.82;;;2.10;;
14052;SDS011;7101;51.600;7.310;2023-06-14T07:07:19;4.70;;;2.35;;
14052;SDS011;7101;51.600;7.310;2023-06-14T07:09:48;3.38;;;2.20;;
14052;SDS011;7101;51.600;7.310;2023-06-14T07:12:15;5.38;;;2.08;;
14052;SDS011;7101;51.600;7.310;2023-06-14T07:14:42;4.55;;;2.20;;
14052;SDS011;7101;51.600;7.310;2023-06-14T07:17:10;7.22;;;2.17;;
14052;SDS011;7101;51.600;7.310;2023-06-14T07:19:36;4.50;;;2.33;;
14052;SDS011;7101;51.600;7.310;2023-06-14T07:22:03;3.60;;;2.10;;
14052;SDS011;7101;51.600;7.310;2023-06-14T07:24:32;6.60;;;2.13;;
14052;SDS011;7101;51.600;7.310;2023-06-14T07:27:01;5.05;;;2.15;;
14052;SDS011;7101;51.600;7.310;2023-06-14T07:29:29;3.13;;;1.80;;
14052;SDS011;7101;51.600;7.310;2023-06-14T07:31:57;4.05;;;2.10;;
14052;SDS011;7101;51.600;7.310;2023-06-14T07:34:24;4.75;;;2.30;;
14052;SDS011;7101;51.600;7.310;2023-06-14T07:36:51;6.38;;;2.05;;
14052;SDS011;7101;51.600;7.310;2023-06-14T07:39:19;4.68;;;2.05;;
14052;SDS011;7101;51.600;7.310;2023-06-14T07:41:47;7.18;;;2.40;;
14052;SDS011;7101;51.600;7.310;2023-06-14T07:44:14;8.23;;;2.15;;
14052;SDS011;7101;51.600;7.310;2023-06-14T07:46:41;5.85;;;2.20;;
14052;SDS011;7101;51.600;7.310;2023-06-14T07:49:08;3.47;;;2.05;;
14052;SDS011;7101;51.600;7.310;2023-06-14T07:51:35;6.05;;;1.80;;
14052;SDS011;7101;51.600;7.310;2023-06-14T07:54:03;2.97;;;1.70;;
14052;SDS011;7101;51.600;7.310;2023-06-14T07:56:32;4.10;;;1.60;;
14052;SDS011;7101;51.600;7.310;2023-06-14T07:59:01;2.92;;;1.50;;
14052;SDS011;7101;51.600;7.310;2023-06-14T08:01:28;5.57;;;1.65;;
14052;SDS011;7101;51.600;7.310;2023-06-14T08:03:58;4.05;;;1.50;;
14052;SDS011;7101;51.600;7.310;2023-06-14T08:06:25;7.55;;;1.60;;
14052;SDS011;7101;51.600;7.310;2023-06-14T08:08:52;2.25;;;1.42;;
14052;SDS011;7101;51.600;7.310;2023-06-14T08:11:19;1.95;;;1.67;;
14052;SDS011;7101;51.600;7.310;2023-06-14T08:13:46;2.53;;;1.58;;
14052;SDS011;7101;51.600;7.310;2023-06-14T08:16:14;2.58;;;1.42;;
14052;SDS011;7101;51.600;7.310;2023-06-14T08:18:41;4.72;;;1.85;;
14052;SDS011;7101;51.600;7.310;2023-06-14T08:21:07;2.10;;;1.40;;
14052;SDS011;7101;51.600;7.310;2023-06-14T08:23:34;2.78;;;1.45;;
14052;SDS011;7101;51.600;7.310;2023-06-14T08:26:02;1.70;;;1.25;;
14052;SDS011;7101;51.600;7.310;2023-06-14T08:28:29;3.58;;;1.40;;
14052;SDS011;7101;51.600;7.310;2023-06-14T08:30:57;5.88;;;1.52;;
14052;SDS011;7101;51.600;7.310;2023-06-14T08:33:25;3.08;;;1.38;;
14052;SDS011;7101;51.600;7.310;2023-06-14T08:35:52;2.25;;;1.30;;
14052;SDS011;7101;51.600;7.310;2023-06-14T08:38:18;4.50;;;1.50;;
14052;SDS011;7101;51.600;7.310;2023-06-14T08:40:47;3.08;;;1.30;;
14052;SDS011;7101;51.600;7.310;2023-06-14T08:43:16;1.52;;;1.25;;
14052;SDS011;7101;51.600;7.310;2023-06-14T08:45:43;4.00;;;1.30;;
14052;SDS011;7101;51.600;7.310;2023-06-14T08:48:15;1.60;;;1.13;;
14052;SDS011;7101;51.600;7.310;2023-06-14T08:50:46;1.83;;;1.20;;
14052;SDS011;7101;51.600;7.310;2023-06-14T08:53:15;3.67;;;1.27;;
14052;SDS011;7101;51.600;7.310;2023-06-14T08:55:45;1.40;;;1.23;;
14052;SDS011;7101;51.600;7.310;2023-06-14T08:58:13;2.97;;;1.00;;
14052;SDS011;7101;51.600;7.310;2023-06-14T09:00:41;2.90;;;1.30;;
14052;SDS011;7101;51.600;7.310;2023-06-14T09:03:09;3.25;;;1.00;;
14052;SDS011;7101;51.600;7.310;2023-06-14T09:05:38;1.38;;;0.93;;
14052;SDS011;7101;51.600;7.310;2023-06-14T09:08:06;3.30;;;1.00;;
14052;SDS011;7101;51.600;7.310;2023-06-14T09:10:33;1.00;;;0.90;;
14052;SDS011;7101;51.600;7.310;2023-06-14T09:13:02;2.13;;;1.10;;
14052;SDS011;7101;51.600;7.310;2023-06-14T09:15:29;6.07;;;1.40;;
14052;SDS011;7101;51.600;7.310;2023-06-14T09:17:56;5.45;;;1.20;;
14052;SDS011;7101;51.600;7.310;2023-06-14T09:20:23;3.30;;;1.20;;
14052;SDS011;7101;51.600;7.310;2023-06-14T09:22:56;1.50;;;1.10;;
14052;SDS011;7101;51.600;7.310;2023-06-14T09:25:25;2.47;;;1.05;;
14052;SDS011;7101;51.600;7.310;2023-06-14T09:27:52;1.00;;;0.90;;
14052;SDS011;7101;51.600;7.310;2023-06-14T09:30:20;2.30;;;0.90;;
14052;SDS011;7101;51.600;7.310;2023-06-14T09:32:47;1.48;;;0.90;;
14052;SDS011;7101;51.600;7.310;2023-06-14T09:35:14;2.83;;;0.90;;
14052;SDS011;7101;51.600;7.310;2023-06-14T09:37:45;3.00;;;1.00;;
14052;SDS011;7101;51.600;7.310;2023-06-14T09:40:13;3.35;;;1.08;;
14052;SDS011;7101;51.600;7.310;2023-06-14T09:42:47;9.88;;;1.52;;
14052;SDS011;7101;51.600;7.310;2023-06-14T09:45:14;2.33;;;1.10;;
14052;SDS011;7101;51.600;7.310;2023-06-14T09:47:46;2.95;;;0.90;;
14052;SDS011;7101;51.600;7.310;2023-06-14T09:50:15;3.25;;;1.10;;
14052;SDS011;7101;51.600;7.310;2023-06-14T09:52:42;3.10;;;1.10;;
14052;SDS011;7101;51.600;7.310;2023-06-14T09:55:11;3.08;;;1.02;;
14052;SDS011;7101;51.600;7.310;2023-06-14T09:57:39;3.92;;;1.08;;
14052;SDS011;7101;51.600;7.310;2023-06-14T10:00:10;4.00;;;1.35;;
14052;SDS011;7101;51.600;7.310;2023-06-14T10:02:43;1.17;;;0.90;;
14052;SDS011;7101;51.600;7.310;2023-06-14T10:05:15;2.80;;;1.10;;
14052;SDS011;7101;51.600;7.310;2023-06-14T10:07:48;2.03;;;1.00;;
14052;SDS011;7101;51.600;7.310;2023-06-14T10:10:19;2.30;;;1.17;;
14052;SDS011;7101;51.600;7.310;2023-06-14T10:12:46;1.27;;;1.17;;
14052;SDS011;7101;51.600;7.310;2023-06-14T10:15:15;2.33;;;1.63;;
14052;SDS011;7101;51.600;7.310;2023-06-14T10:17:46;2.72;;;1.63;;
14052;SDS011;7101;51.600;7.310;2023-06-14T10:20:21;2.55;;;1.00;;
14052;SDS011;7101;51.600;7.310;2023-06-14T10:23:00;2.40;;;1.10;;
14052;SDS011;7101;51.600;7.310;2023-06-14T10:25:30;3.70;;;1.00;;
14052;SDS011;7101;51.600;7.310;2023-06-14T10:28:14;4.28;;;1.10;;
14052;SDS011;7101;51.600;7.310;2023-06-14T10:33:33;4.90;;;1.23;;
14052;SDS011;7101;51.600;7.310;2023-06-14T10:36:07;2.40;;;1.10;;
14052;SDS011;7101;51.600;7.310;2023-06-14T10:38:36;1.65;;;1.00;;
14052;SDS011;7101;51.600;7.310;2023-06-14T10:41:04;2.45;;;1.40;;
14052;SDS011;7101;51.600;7.310;2023-06-14T10:43:32;3.75;;;1.27;;
14052;SDS011;7101;51.600;7.310;2023-06-14T10:46:17;1.73;;;1.08;;
14052;SDS011;7101;51.600;7.310;2023-06-14T10:48:47;1.58;;;1.17;;
14052;SDS011;7101;51.600;7.310;2023-06-14T10:51:15;1.85;;;1.33;;
14052;SDS011;7101;51.600;7.310;2023-06-14T10:53:45;2.85;;;1.30;;
14052;SDS011;7101;51.600;7.310;2023-06-14T10:56:22;1.48;;;1.20;;
14052;SDS011;7101;51.600;7.310;2023-06-14T10:58:52;3.50;;;1.23;;
14052;SDS011;7101;51.600;7.310;2023-06-14T11:01:29;5.22;;;1.40;;
14052;SDS011;7101;51.600;7.310;2023-06-14T11:04:11;1.30;;;1.20;;
14052;SDS011;7101;51.600;7.310;2023-06-14T11:06:44;2.38;;;1.30;;
14052;SDS011;7101;51.600;7.310;2023-06-14T11:09:41;2.92;;;1.30;;
14052;SDS011;7101;51.600;7.310;2023-06-14T11:12:20;2.22;;;1.30;;
14052;SDS011;7101;51.600;7.310;2023-06-14T11:14:47;2.17;;;1.40;;
14052;SDS011;7101;51.600;7.310;2023-06-14T11:17:15;3.78;;;1.30;;
14052;SDS011;7101;51.600;7.310;2023-06-14T11:19:43;3.38;;;1.60;;
14052;SDS011;7101;51.600;7.310;2023-06-14T11:22:10;1.42;;;1.30;;
14052;SDS011;7101;51.600;7.310;2023-06-14T11:24:40;2.03;;;1.58;;
14052;SDS011;7101;51.600;7.310;2023-06-14T11:27:08;2.38;;;1.33;;
14052;SDS011;7101;51.600;7.310;2023-06-14T11:29:37;3.08;;;1.70;;
14052;SDS011;7101;51.600;7.310;2023-06-14T11:32:06;4.38;;;1.30;;
14052;SDS011;7101;51.600;7.310;2023-06-14T11:34:39;2.30;;;1.60;;
14052;SDS011;7101;51.600;7.310;2023-06-14T11:37:06;2.15;;;1.50;;
14052;SDS011;7101;51.600;7.310;2023-06-14T11:39:36;2.47;;;1.45;;
14052;SDS011;7101;51.600;7.310;2023-06-14T11:42:13;3.45;;;1.67;;
14052;SDS011;7101;51.600;7.310;2023-06-14T11:44:41;2.42;;;1.60;;
14052;SDS011;7101;51.600;7.310;2023-06-14T11:47:09;5.88;;;2.17;;
14052;SDS011;7101;51.600;7.310;2023-06-14T11:49:36;8.65;;;1.75;;
14052;SDS011;7101;51.600;7.310;2023-06-14T11:52:05;1.65;;;1.40;;
14052;SDS011;7101;51.600;7.310;2023-06-14T11:54:33;3.90;;;1.70;;
14052;SDS011;7101;51.600;7.310;2023-06-14T11:57:00;3.28;;;1.60;;
14052;SDS011;7101;51.600;7.310;2023-06-14T11:59:27;7.57;;;1.73;;
14052;SDS011;7101;51.600;7.310;2023-06-14T12:01:56;2.47;;;1.30;;
14052;SDS011;7101;51.600;7.310;2023-06-14T12:04:24;4.15;;;1.63;;
14052;SDS011;7101;51.600;7.310;2023-06-14T12:07:11;6.55;;;1.50;;
14052;SDS011;7101;51.600;7.310;2023-06-14T12:10:03;2.97;;;1.55;;
14052;SDS011;7101;51.600;7.310;2023-06-14T12:12:34;5.88;;;2.00;;
14052;SDS011;7101;51.600;7.310;2023-06-14T12:15:02;4.15;;;1.92;;
14052;SDS011;7101;51.600;7.310;2023-06-14T12:17:31;2.85;;;1.60;;
14052;SDS011;7101;51.600;7.310;2023-06-14T12:19:59;1.70;;;1.42;;
14052;SDS011;7101;51.600;7.310;2023-06-14T12:22:37;2.88;;;1.52;;
14052;SDS011;7101;51.600;7.310;2023-06-14T12:25:04;5.40;;;1.73;;
14052;SDS011;7101;51.600;7.310;2023-06-14T12:27:31;2.92;;;1.30;;
14052;SDS011;7101;51.600;7.310;2023-06-14T12:29:58;7.30;;;1.85;;
14052;SDS011;7101;51.600;7.310;2023-06-14T12:32:31;2.40;;;1.52;;
14052;SDS011;7101;51.600;7.310;2023-06-14T12:34:58;4.68;;;1.70;;
14052;SDS011;7101;51.600;7.310;2023-06-14T12:37:26;1.83;;;1.52;;
14052;SDS011;7101;51.600;7.310;2023-06-14T12:39:54;7.10;;;1.63;;
14052;SDS011;7101;51.600;7.310;2023-06-14T12:42:21;3.95;;;1.50;;
14052;SDS011;7101;51.600;7.310;2023-06-14T12:44:47;1.90;;;1.70;;
14052;SDS011;7101;51.600;7.310;2023-06-14T12:47:14;2.25;;;1.60;;
14052;SDS011;7101;51.600;7.310;2023-06-14T12:49:41;4.93;;;1.65;;
14052;SDS011;7101;51.600;7.310;2023-06-14T12:52:08;2.88;;;1.90;;
14052;SDS011;7101;51.600;7.310;2023-06-14T12:54:35;4.47;;;1.85;;
14052;SDS011;7101;51.600;7.310;2023-06-14T12:57:05;3.15;;;1.83;;
14052;SDS011;7101;51.600;7.310;2023-06-14T12:59:34;3.90;;;2.00;;
14052;SDS011;7101;51.600;7.310;2023-06-14T13:02:12;4.57;;;1.70;;
14052;SDS011;7101;51.600;7.310;2023-06-14T13:04:39;6.20;;;2.08;;
14052;SDS011;7101;51.600;7.310;2023-06-14T13:07:06;4.28;;;1.95;;
14052;SDS011;7101;51.600;7.310;2023-06-14T13:09:33;4.35;;;1.63;;
14052;SDS011;7101;51.600;7.310;2023-06-14T13:12:02;2.95;;;1.50;;
14052;SDS011;7101;51.600;7.310;2023-06-14T13:14:30;2.50;;;1.77;;
14052;SDS011;7101;51.600;7.310;2023-06-14T13:16:57;5.97;;;1.73;;
14052;SDS011;7101;51.600;7.310;2023-06-14T13:19:24;7.32;;;1.60;;
14052;SDS011;7101;51.600;7.310;2023-06-14T13:21:51;4.05;;;1.70;;
14052;SDS011;7101;51.600;7.310;2023-06-14T13:24:18;4.47;;;1.70;;
14052;SDS011;7101;51.600;7.310;2023-06-14T13:26:44;2.38;;;1.80;;
14052;SDS011;7101;51.600;7.310;2023-06-14T13:29:11;3.08;;;1.83;;
14052;SDS011;7101;51.600;7.310;2023-06-14T13:31:41;4.50;;;1.60;;
14052;SDS011;7101;51.600;7.310;2023-06-14T13:34:09;2.63;;;1.58;;
14052;SDS011;7101;51.600;7.310;2023-06-14T13:36:35;2.33;;;1.77;;
14052;SDS011;7101;51.600;7.310;2023-06-14T13:39:02;10.05;;;2.17;;
14052;SDS011;7101;51.600;7.310;2023-06-14T13:41:29;32.90;;;3.05;;
14052;SDS011;7101;51.600;7.310;2023-06-14T13:43:58;3.50;;;1.98;;
14052;SDS011;7101;51.600;7.310;2023-06-14T13:46:25;3.05;;;1.88;;
14052;SDS011;7101;51.600;7.310;2023-06-14T13:48:54;4.10;;;1.80;;
14052;SDS011;7101;51.600;7.310;2023-06-14T13:51:20;2.50;;;1.90;;
14052;SDS011;7101;51.600;7.310;2023-06-14T13:53:48;4.00;;;2.00;;
14052;SDS011;7101;51.600;7.310;2023-06-14T13:56:15;3.22;;;1.60;;
14052;SDS011;7101;51.600;7.310;2023-06-14T13:58:43;2.42;;;1.50;;
14052;SDS011;7101;51.600;7.310;2023-06-14T14:01:09;1.85;;;1.52;;
14052;SDS011;7101;51.600;7.310;2023-06-14T14:03:38;2.78;;;1.90;;
14052;SDS011;7101;51.600;7.310;2023-06-14T14:06:07;2.15;;;1.45;;
14052;SDS011;7101;51.600;7.310;2023-06-14T14:08:34;1.60;;;1.50;;
14052;SDS011;7101;51.600;7.310;2023-06-14T14:11:01;2.03;;;1.80;;
14052;SDS011;7101;51.600;7.310;2023-06-14T14:13:28;3.10;;;1.77;;
14052;SDS011;7101;51.600;7.310;2023-06-14T14:15:55;4.50;;;1.80;;
14052;SDS011;7101;51.600;7.310;2023-06-14T14:18:22;7.88;;;1.85;;
14052;SDS011;7101;51.600;7.310;2023-06-14T14:20:49;3.28;;;1.77;;
14052;SDS011;7101;51.600;7.310;2023-06-14T14:23:17;1.88;;;1.60;;
14052;SDS011;7101;51.600;7.310;2023-06-14T14:25:45;2.50;;;1.70;;
14052;SDS011;7101;51.600;7.310;2023-06-14T14:28:13;3.80;;;1.70;;
14052;SDS011;7101;51.600;7.310;2023-06-14T14:30:41;3.15;;;1.83;;
14052;SDS011;7101;51.600;7.310;2023-06-14T14:33:09;2.10;;;1.60;;
14052;SDS011;7101;51.600;7.310;2023-06-14T14:35:40;3.35;;;1.80;;
14052;SDS011;7101;51.600;7.310;2023-06-14T14:38:07;4.97;;;1.88;;
14052;SDS011;7101;51.600;7.310;2023-06-14T14:40:36;3.85;;;1.58;;
14052;SDS011;7101;51.600;7.310;2023-06-14T14:43:04;1.75;;;1.55;;
14052;SDS011;7101;51.600;7.310;2023-06-14T14:45:31;4.32;;;2.00;;
14052;SDS011;7101;51.600;7.310;2023-06-14T14:47:59;5.97;;;2.00;;
14052;SDS011;7101;51.600;7.310;2023-06-14T14:50:29;7.65;;;1.83;;
14052;SDS011;7101;51.600;7.310;2023-06-14T14:52:57;3.35;;;1.67;;
14052;SDS011;7101;51.600;7.310;2023-06-14T14:55:23;2.50;;;1.80;;
14052;SDS011;7101;51.600;7.310;2023-06-14T14:57:51;5.38;;;2.28;;
14052;SDS011;7101;51.600;7.310;2023-06-14T15:00:18;2.72;;;1.55;;
14052;SDS011;7101;51.600;7.310;2023-06-14T15:02:47;1.92;;;1.70;;
14052;SDS011;7101;51.600;7.310;2023-06-14T15:05:20;2.75;;;1.65;;
14052;SDS011;7101;51.600;7.310;2023-06-14T15:07:46;3.88;;;2.05;;
14052;SDS011;7101;51.600;7.310;2023-06-14T15:10:13;2.03;;;1.50;;
14052;SDS011;7101;51.600;7.310;2023-06-14T15:12:40;5.43;;;1.88;;